sensor_id;sensor_type;location;lat;lon;timestamp;P1;durP1;ratioP1;P2;durP2;ratioP2
26488;SDS011;14169;43.684;10.484;2023-02-12T00:00:03;29.10;;;20.75;;
26488;SDS011;14169;43.684;10.484;2023-02-12T00:02:32;31.97;;;19.90;;
26488;SDS011;14169;43.684;10.484;2023-02-12T00:04:58;31.23;;;22.35;;
26488;SDS011;14169;43.684;10.484;2023-02-12T00:07:23;31.40;;;20.98;;
26488;SDS011;14169;43.684;10.484;2023-02-12T00:09:48;32.35;;;20.83;;
26488;SDS011;14169;43.684;10.484;2023-02-12T00:12:14;42.70;;;24.00;;
26488;SDS011;14169;43.684;10.484;2023-02-12T00:14:40;43.20;;;25.67;;
26488;SDS011;14169;43.684;10.484;2023-02-12T00:17:06;46.10;;;27.48;;
26488;SDS011;14169;43.684;10.484;2023-02-12T00:19:31;44.03;;;27.83;;
26488;SDS011;14169;43.684;10.484;2023-02-12T00:21:57;49.42;;;28.08;;
26488;SDS011;14169;43.684;10.484;2023-02-12T00:24:22;47.80;;;28.88;;
26488;SDS011;14169;43.684;10.484;2023-02-12T00:26:47;45.38;;;25.58;;
26488;SDS011;14169;43.684;10.484;2023-02-12T00:29:15;38.30;;;26.25;;
26488;SDS011;14169;43.684;10.484;2023-02-12T00:31:40;40.15;;;25.52;;
26488;SDS011;14169;43.684;10.484;2023-02-12T00:34:06;49.33;;;30.73;;
26488;SDS011;14169;43.684;10.484;2023-02-12T00:36:31;49.97;;;31.15;;
26488;SDS011;14169;43.684;10.484;2023-02-12T00:38:57;49.35;;;30.48;;
26488;SDS011;14169;43.684;10.484;2023-02-12T00:41:24;47.75;;;31.48;;
26488;SDS011;14169;43.684;10.484;2023-02-12T00:43:50;62.40;;;35.20;;
26488;SDS011;14169;43.684;10.484;2023-02-12T00:46:15;70.55;;;34.22;;
26488;SDS011;14169;43.684;10.484;2023-02-12T00:48:41;48.97;;;32.28;;
26488;SDS011;14169;43.684;10.484;2023-02-12T00:51:06;71.43;;;39.58;;
26488;SDS011;14169;43.684;10.484;2023-02-12T00:53:32;69.32;;;40.60;;
26488;SDS011;14169;43.684;10.484;2023-02-12T00:55:58;68.40;;;41.28;;
26488;SDS011;14169;43.684;10.484;2023-02-12T00:58:24;74.72;;;43.72;;
26488;SDS011;14169;43.684;10.484;2023-02-12T01:00:49;66.72;;;42.00;;
26488;SDS011;14169;43.684;10.484;2023-02-12T01:03:15;73.22;;;42.50;;
26488;SDS011;14169;43.684;10.484;2023-02-12T01:05:41;74.07;;;42.63;;
26488;SDS011;14169;43.684;10.484;2023-02-12T01:08:07;65.10;;;39.42;;
26488;SDS011;14169;43.684;10.484;2023-02-12T01:10:34;62.88;;;38.58;;
26488;SDS011;14169;43.684;10.484;2023-02-12T01:13:00;64.38;;;36.72;;
26488;SDS011;14169;43.684;10.484;2023-02-12T01:15:25;65.38;;;37.35;;
26488;SDS011;14169;43.684;10.484;2023-02-12T01:17:51;57.35;;;34.50;;
26488;SDS011;14169;43.684;10.484;2023-02-12T01:20:18;54.80;;;35.13;;
26488;SDS011;14169;43.684;10.484;2023-02-12T01:22:44;57.78;;;34.45;;
26488;SDS011;14169;43.684;10.484;2023-02-12T01:25:10;52.95;;;34.75;;
26488;SDS011;14169;43.684;10.484;2023-02-12T01:27:36;56.05;;;35.17;;
26488;SDS011;14169;43.684;10.484;2023-02-12T01:30:01;54.47;;;34.58;;
26488;SDS011;14169;43.684;10.484;2023-02-12T01:32:27;56.80;;;36.35;;
26488;SDS011;14169;43.684;10.484;2023-02-12T01:34:53;54.03;;;33.92;;
26488;SDS011;14169;43.684;10.484;2023-02-12T01:37:18;54.40;;;33.65;;
26488;SDS011;14169;43.684;10.484;2023-02-12T01:39:44;59.97;;;36.42;;
26488;SDS011;14169;43.684;10.484;2023-02-12T01:42:11;60.70;;;36.28;;
26488;SDS011;14169;43.684;10.484;2023-02-12T01:44:38;59.65;;;35.08;;
26488;SDS011;14169;43.684;10.484;2023-02-12T01:47:16;59.08;;;36.42;;
26488;SDS011;14169;43.684;10.484;2023-02-12T01:49:43;53.05;;;35.05;;
26488;SDS011;14169;43.684;10.484;2023-02-12T01:55:12;52.95;;;34.58;;
26488;SDS011;14169;43.684;10.484;2023-02-12T01:57:40;57.03;;;35.47;;
26488;SDS011;14169;43.684;10.484;2023-02-12T02:00:10;56.97;;;35.60;;
26488;SDS011;14169;43.684;10.484;2023-02-12T02:02:38;55.53;;;33.72;;
26488;SDS011;14169;43.684;10.484;2023-02-12T02:05:04;57.83;;;35.15;;
26488;SDS011;14169;43.684;10.484;2023-02-12T02:07:31;57.63;;;35.08;;
26488;SDS011;14169;43.684;10.484;2023-02-12T02:09:57;54.13;;;36.35;;
26488;SDS011;14169;43.684;10.484;2023-02-12T02:12:23;53.65;;;36.00;;
26488;SDS011;14169;43.684;10.484;2023-02-12T02:15:09;58.05;;;35.30;;
26488;SDS011;14169;43.684;10.484;2023-02-12T02:28:53;46.83;;;31.23;;
26488;SDS011;14169;43.684;10.484;2023-02-12T02:34:38;43.30;;;28.52;;
26488;SDS011;14169;43.684;10.484;2023-02-12T02:42:26;50.40;;;32.83;;
26488;SDS011;14169;43.684;10.484;2023-02-12T02:44:58;51.30;;;34.78;;
26488;SDS011;14169;43.684;10.484;2023-02-12T02:47:33;51.50;;;33.20;;
26488;SDS011;14169;43.684;10.484;2023-02-12T02:50:13;62.85;;;36.30;;
26488;SDS011;14169;43.684;10.484;2023-02-12T02:53:01;56.97;;;34.78;;
26488;SDS011;14169;43.684;10.484;2023-02-12T02:55:37;65.68;;;37.17;;
26488;SDS011;14169;43.684;10.484;2023-02-12T02:58:10;56.50;;;36.80;;
26488;SDS011;14169;43.684;10.484;2023-02-12T03:00:39;62.80;;;38.70;;
26488;SDS011;14169;43.684;10.484;2023-02-12T03:06:04;60.88;;;38.10;;
26488;SDS011;14169;43.684;10.484;2023-02-12T03:08:45;65.45;;;38.08;;
26488;SDS011;14169;43.684;10.484;2023-02-12T03:11:32;62.15;;;38.03;;
26488;SDS011;14169;43.684;10.484;2023-02-12T03:14:02;69.28;;;37.65;;
26488;SDS011;14169;43.684;10.484;2023-02-12T03:17:18;65.00;;;38.20;;
26488;SDS011;14169;43.684;10.484;2023-02-12T03:19:24;58.00;;;37.45;;
26488;SDS011;14169;43.684;10.484;2023-02-12T03:21:56;66.15;;;39.22;;
26488;SDS011;14169;43.684;10.484;2023-02-12T03:24:31;60.92;;;37.00;;
26488;SDS011;14169;43.684;10.484;2023-02-12T03:27:06;56.78;;;35.13;;
26488;SDS011;14169;43.684;10.484;2023-02-12T03:29:37;60.28;;;35.63;;
26488;SDS011;14169;43.684;10.484;2023-02-12T03:34:39;56.33;;;34.22;;
26488;SDS011;14169;43.684;10.484;2023-02-12T03:37:10;60.35;;;35.90;;
26488;SDS011;14169;43.684;10.484;2023-02-12T03:44:55;57.88;;;36.50;;
26488;SDS011;14169;43.684;10.484;2023-02-12T03:52:45;54.60;;;33.03;;
26488;SDS011;14169;43.684;10.484;2023-02-12T03:55:14;53.83;;;32.75;;
26488;SDS011;14169;43.684;10.484;2023-02-12T03:57:41;46.50;;;31.52;;
26488;SDS011;14169;43.684;10.484;2023-02-12T04:00:11;55.72;;;33.58;;
26488;SDS011;14169;43.684;10.484;2023-02-12T04:02:42;51.30;;;32.83;;
26488;SDS011;14169;43.684;10.484;2023-02-12T04:05:15;55.85;;;33.55;;
26488;SDS011;14169;43.684;10.484;2023-02-12T04:07:45;61.03;;;33.90;;
26488;SDS011;14169;43.684;10.484;2023-02-12T04:10:11;56.97;;;36.83;;
26488;SDS011;14169;43.684;10.484;2023-02-12T04:12:38;50.35;;;32.75;;
26488;SDS011;14169;43.684;10.484;2023-02-12T04:15:28;58.17;;;35.30;;
26488;SDS011;14169;43.684;10.484;2023-02-12T04:39:54;50.55;;;34.30;;
26488;SDS011;14169;43.684;10.484;2023-02-12T04:42:20;49.20;;;32.28;;
26488;SDS011;14169;43.684;10.484;2023-02-12T04:44:46;51.22;;;33.63;;
26488;SDS011;14169;43.684;10.484;2023-02-12T04:47:13;58.47;;;35.33;;
26488;SDS011;14169;43.684;10.484;2023-02-12T04:49:39;59.75;;;35.58;;
26488;SDS011;14169;43.684;10.484;2023-02-12T04:52:05;60.58;;;36.08;;
26488;SDS011;14169;43.684;10.484;2023-02-12T04:54:31;62.28;;;35.97;;
26488;SDS011;14169;43.684;10.484;2023-02-12T04:56:56;59.72;;;37.35;;
26488;SDS011;14169;43.684;10.484;2023-02-12T04:59:21;61.20;;;37.40;;
26488;SDS011;14169;43.684;10.484;2023-02-12T05:01:47;69.40;;;38.40;;
26488;SDS011;14169;43.684;10.484;2023-02-12T05:04:13;61.00;;;40.00;;
26488;SDS011;14169;43.684;10.484;2023-02-12T05:06:39;63.85;;;39.80;;
26488;SDS011;14169;43.684;10.484;2023-02-12T05:09:06;63.33;;;38.03;;
26488;SDS011;14169;43.684;10.484;2023-02-12T05:11:33;59.10;;;36.80;;
26488;SDS011;14169;43.684;10.484;2023-02-12T05:13:59;56.47;;;35.92;;
26488;SDS011;14169;43.684;10.484;2023-02-12T05:16:24;61.63;;;36.75;;
26488;SDS011;14169;43.684;10.484;2023-02-12T05:18:50;58.22;;;35.28;;
26488;SDS011;14169;43.684;10.484;2023-02-12T05:21:15;61.78;;;37.00;;
26488;SDS011;14169;43.684;10.484;2023-02-12T05:23:41;63.10;;;38.53;;
26488;SDS011;14169;43.684;10.484;2023-02-12T05:26:09;62.30;;;38.53;;
26488;SDS011;14169;43.684;10.484;2023-02-12T05:28:38;64.25;;;38.10;;
26488;SDS011;14169;43.684;10.484;2023-02-12T05:31:04;60.60;;;37.50;;
26488;SDS011;14169;43.684;10.484;2023-02-12T05:33:32;63.97;;;40.63;;
26488;SDS011;14169;43.684;10.484;2023-02-12T05:36:04;65.30;;;41.42;;
26488;SDS011;14169;43.684;10.484;2023-02-12T05:38:32;65.70;;;39.42;;
26488;SDS011;14169;43.684;10.484;2023-02-12T05:41:05;63.08;;;37.67;;
26488;SDS011;14169;43.684;10.484;2023-02-12T05:43:32;54.90;;;37.30;;
26488;SDS011;14169;43.684;10.484;2023-02-12T05:45:58;59.53;;;37.17;;
26488;SDS011;14169;43.684;10.484;2023-02-12T05:48:24;62.67;;;36.55;;
26488;SDS011;14169;43.684;10.484;2023-02-12T05:50:50;54.00;;;36.50;;
26488;SDS011;14169;43.684;10.484;2023-02-12T05:53:16;62.33;;;37.28;;
26488;SDS011;14169;43.684;10.484;2023-02-12T05:55:41;63.72;;;38.60;;
26488;SDS011;14169;43.684;10.484;2023-02-12T05:58:07;61.75;;;38.40;;
26488;SDS011;14169;43.684;10.484;2023-02-12T06:00:32;65.38;;;40.88;;
26488;SDS011;14169;43.684;10.484;2023-02-12T06:02:57;71.22;;;41.28;;
26488;SDS011;14169;43.684;10.484;2023-02-12T06:05:23;73.15;;;41.95;;
26488;SDS011;14169;43.684;10.484;2023-02-12T06:07:48;73.15;;;42.45;;
26488;SDS011;14169;43.684;10.484;2023-02-12T06:10:13;77.28;;;41.92;;
26488;SDS011;14169;43.684;10.484;2023-02-12T06:12:39;74.63;;;44.30;;
26488;SDS011;14169;43.684;10.484;2023-02-12T06:15:04;71.07;;;43.38;;
26488;SDS011;14169;43.684;10.484;2023-02-12T06:17:33;70.30;;;42.00;;
26488;SDS011;14169;43.684;10.484;2023-02-12T06:19:59;72.00;;;43.08;;
26488;SDS011;14169;43.684;10.484;2023-02-12T06:22:24;74.78;;;41.10;;
26488;SDS011;14169;43.684;10.484;2023-02-12T06:24:51;67.82;;;41.80;;
26488;SDS011;14169;43.684;10.484;2023-02-12T06:27:16;70.38;;;42.30;;
26488;SDS011;14169;43.684;10.484;2023-02-12T06:29:42;64.85;;;41.88;;
26488;SDS011;14169;43.684;10.484;2023-02-12T06:32:07;68.97;;;42.55;;
26488;SDS011;14169;43.684;10.484;2023-02-12T06:34:33;74.82;;;45.38;;
26488;SDS011;14169;43.684;10.484;2023-02-12T06:36:58;77.05;;;43.17;;
26488;SDS011;14169;43.684;10.484;2023-02-12T06:39:24;76.65;;;44.60;;
26488;SDS011;14169;43.684;10.484;2023-02-12T06:41:49;71.82;;;42.45;;
26488;SDS011;14169;43.684;10.484;2023-02-12T06:44:14;70.45;;;42.97;;
26488;SDS011;14169;43.684;10.484;2023-02-12T06:46:40;76.45;;;40.95;;
26488;SDS011;14169;43.684;10.484;2023-02-12T06:49:06;65.18;;;39.67;;
26488;SDS011;14169;43.684;10.484;2023-02-12T06:51:31;73.20;;;42.58;;
26488;SDS011;14169;43.684;10.484;2023-02-12T06:53:57;60.97;;;38.80;;
26488;SDS011;14169;43.684;10.484;2023-02-12T06:56:23;60.92;;;37.28;;
26488;SDS011;14169;43.684;10.484;2023-02-12T06:58:53;62.88;;;39.22;;
26488;SDS011;14169;43.684;10.484;2023-02-12T07:01:21;58.30;;;35.97;;
26488;SDS011;14169;43.684;10.484;2023-02-12T07:03:50;47.67;;;31.65;;
26488;SDS011;14169;43.684;10.484;2023-02-12T07:06:18;54.90;;;30.95;;
26488;SDS011;14169;43.684;10.484;2023-02-12T07:08:43;58.00;;;32.75;;
26488;SDS011;14169;43.684;10.484;2023-02-12T07:11:09;64.32;;;32.00;;
26488;SDS011;14169;43.684;10.484;2023-02-12T07:13:34;53.47;;;32.97;;
26488;SDS011;14169;43.684;10.484;2023-02-12T07:16:07;50.53;;;30.20;;
26488;SDS011;14169;43.684;10.484;2023-02-12T07:18:35;51.78;;;29.40;;
26488;SDS011;14169;43.684;10.484;2023-02-12T07:21:00;60.08;;;32.80;;
26488;SDS011;14169;43.684;10.484;2023-02-12T07:23:26;50.47;;;29.75;;
26488;SDS011;14169;43.684;10.484;2023-02-12T07:25:59;59.42;;;31.90;;
26488;SDS011;14169;43.684;10.484;2023-02-12T07:28:27;51.22;;;30.20;;
26488;SDS011;14169;43.684;10.484;2023-02-12T07:30:52;47.30;;;29.83;;
26488;SDS011;14169;43.684;10.484;2023-02-12T07:33:18;50.13;;;30.48;;
26488;SDS011;14169;43.684;10.484;2023-02-12T07:35:44;57.10;;;30.42;;
26488;SDS011;14169;43.684;10.484;2023-02-12T07:38:10;52.80;;;31.27;;
26488;SDS011;14169;43.684;10.484;2023-02-12T07:40:36;49.38;;;32.42;;
26488;SDS011;14169;43.684;10.484;2023-02-12T07:43:02;49.20;;;32.50;;
26488;SDS011;14169;43.684;10.484;2023-02-12T07:45:27;48.28;;;31.85;;
26488;SDS011;14169;43.684;10.484;2023-02-12T07:47:52;49.45;;;31.80;;
26488;SDS011;14169;43.684;10.484;2023-02-12T07:50:18;44.35;;;29.35;;
26488;SDS011;14169;43.684;10.484;2023-02-12T07:52:43;43.33;;;29.00;;
26488;SDS011;14169;43.684;10.484;2023-02-12T07:55:09;45.58;;;28.90;;
26488;SDS011;14169;43.684;10.484;2023-02-12T07:57:34;44.13;;;27.48;;
26488;SDS011;14169;43.684;10.484;2023-02-12T08:00:00;39.08;;;26.73;;
26488;SDS011;14169;43.684;10.484;2023-02-12T08:02:27;37.85;;;26.63;;
26488;SDS011;14169;43.684;10.484;2023-02-12T08:04:55;44.40;;;27.63;;
26488;SDS011;14169;43.684;10.484;2023-02-12T08:07:22;31.80;;;23.23;;
26488;SDS011;14169;43.684;10.484;2023-02-12T08:09:47;33.45;;;23.90;;
26488;SDS011;14169;43.684;10.484;2023-02-12T08:12:13;27.77;;;22.25;;
26488;SDS011;14169;43.684;10.484;2023-02-12T08:14:38;36.75;;;23.73;;
26488;SDS011;14169;43.684;10.484;2023-02-12T08:17:04;30.80;;;22.92;;
26488;SDS011;14169;43.684;10.484;2023-02-12T08:19:30;26.45;;;20.77;;
26488;SDS011;14169;43.684;10.484;2023-02-12T08:21:55;25.70;;;19.10;;
26488;SDS011;14169;43.684;10.484;2023-02-12T08:24:21;25.80;;;18.98;;
26488;SDS011;14169;43.684;10.484;2023-02-12T08:26:47;26.10;;;20.45;;
26488;SDS011;14169;43.684;10.484;2023-02-12T08:29:14;25.27;;;21.35;;
26488;SDS011;14169;43.684;10.484;2023-02-12T08:31:42;33.28;;;22.40;;
26488;SDS011;14169;43.684;10.484;2023-02-12T08:34:20;30.10;;;22.02;;
26488;SDS011;14169;43.684;10.484;2023-02-12T08:36:47;43.25;;;27.65;;
26488;SDS011;14169;43.684;10.484;2023-02-12T08:39:14;39.55;;;26.70;;
26488;SDS011;14169;43.684;10.484;2023-02-12T08:41:40;47.35;;;29.58;;
26488;SDS011;14169;43.684;10.484;2023-02-12T08:44:06;38.78;;;27.45;;
26488;SDS011;14169;43.684;10.484;2023-02-12T08:46:33;38.55;;;26.48;;
26488;SDS011;14169;43.684;10.484;2023-02-12T08:49:01;31.48;;;26.48;;
26488;SDS011;14169;43.684;10.484;2023-02-12T08:51:30;34.80;;;25.27;;
26488;SDS011;14169;43.684;10.484;2023-02-12T08:54:02;31.02;;;24.73;;
26488;SDS011;14169;43.684;10.484;2023-02-12T08:56:30;32.90;;;23.67;;
26488;SDS011;14169;43.684;10.484;2023-02-12T08:58:57;36.83;;;25.30;;
26488;SDS011;14169;43.684;10.484;2023-02-12T09:01:24;38.63;;;24.75;;
26488;SDS011;14169;43.684;10.484;2023-02-12T09:03:51;35.47;;;23.38;;
26488;SDS011;14169;43.684;10.484;2023-02-12T09:06:18;31.20;;;23.40;;
26488;SDS011;14169;43.684;10.484;2023-02-12T09:08:46;33.08;;;23.30;;
26488;SDS011;14169;43.684;10.484;2023-02-12T09:11:13;55.45;;;31.52;;
26488;SDS011;14169;43.684;10.484;2023-02-12T09:13:41;34.97;;;24.33;;
26488;SDS011;14169;43.684;10.484;2023-02-12T09:16:07;28.70;;;23.63;;
26488;SDS011;14169;43.684;10.484;2023-02-12T09:18:34;29.85;;;22.25;;
26488;SDS011;14169;43.684;10.484;2023-02-12T09:21:04;27.20;;;22.15;;
26488;SDS011;14169;43.684;10.484;2023-02-12T09:23:31;25.08;;;22.08;;
26488;SDS011;14169;43.684;10.484;2023-02-12T09:25:57;25.85;;;22.42;;
26488;SDS011;14169;43.684;10.484;2023-02-12T09:28:23;26.30;;;22.45;;
26488;SDS011;14169;43.684;10.484;2023-02-12T09:30:48;31.80;;;24.15;;
26488;SDS011;14169;43.684;10.484;2023-02-12T09:33:14;27.75;;;20.35;;
26488;SDS011;14169;43.684;10.484;2023-02-12T09:35:39;28.35;;;21.50;;
26488;SDS011;14169;43.684;10.484;2023-02-12T09:38:06;29.33;;;20.88;;
26488;SDS011;14169;43.684;10.484;2023-02-12T09:46:09;21.42;;;17.75;;
26488;SDS011;14169;43.684;10.484;2023-02-12T09:51:02;18.77;;;16.88;;
26488;SDS011;14169;43.684;10.484;2023-02-12T09:53:31;20.92;;;17.40;;
26488;SDS011;14169;43.684;10.484;2023-02-12T09:56:07;18.63;;;15.93;;
26488;SDS011;14169;43.684;10.484;2023-02-12T09:58:38;21.60;;;17.02;;
26488;SDS011;14169;43.684;10.484;2023-02-12T10:01:13;18.70;;;16.80;;
26488;SDS011;14169;43.684;10.484;2023-02-12T10:06:10;18.77;;;17.02;;
26488;SDS011;14169;43.684;10.484;2023-02-12T10:17:02;26.42;;;20.02;;
26488;SDS011;14169;43.684;10.484;2023-02-12T10:19:44;23.67;;;19.60;;
26488;SDS011;14169;43.684;10.484;2023-02-12T10:25:00;23.27;;;20.75;;
26488;SDS011;14169;43.684;10.484;2023-02-12T10:30:03;19.83;;;17.83;;
26488;SDS011;14169;43.684;10.484;2023-02-12T10:32:40;19.73;;;17.73;;
26488;SDS011;14169;43.684;10.484;2023-02-12T10:35:12;22.30;;;20.00;;
26488;SDS011;14169;43.684;10.484;2023-02-12T10:38:02;24.45;;;19.85;;
26488;SDS011;14169;43.684;10.484;2023-02-12T10:40:30;21.45;;;19.45;;
26488;SDS011;14169;43.684;10.484;2023-02-12T10:42:58;22.20;;;18.98;;
26488;SDS011;14169;43.684;10.484;2023-02-12T10:45:34;26.17;;;20.13;;
26488;SDS011;14169;43.684;10.484;2023-02-12T10:48:11;19.15;;;17.40;;
26488;SDS011;14169;43.684;10.484;2023-02-12T10:50:57;20.23;;;18.17;;
26488;SDS011;14169;43.684;10.484;2023-02-12T10:53:34;19.20;;;17.35;;
26488;SDS011;14169;43.684;10.484;2023-02-12T10:58:39;21.13;;;18.90;;
26488;SDS011;14169;43.684;10.484;2023-02-12T11:01:13;19.65;;;17.35;;
26488;SDS011;14169;43.684;10.484;2023-02-12T11:03:43;19.58;;;17.40;;
26488;SDS011;14169;43.684;10.484;2023-02-12T11:06:19;20.25;;;18.33;;
26488;SDS011;14169;43.684;10.484;2023-02-12T11:08:46;22.92;;;19.83;;
26488;SDS011;14169;43.684;10.484;2023-02-12T11:11:13;19.50;;;17.77;;
26488;SDS011;14169;43.684;10.484;2023-02-12T11:13:45;20.55;;;18.60;;
26488;SDS011;14169;43.684;10.484;2023-02-12T11:16:25;20.75;;;18.55;;
26488;SDS011;14169;43.684;10.484;2023-02-12T11:19:02;17.95;;;16.35;;
26488;SDS011;14169;43.684;10.484;2023-02-12T11:21:29;18.85;;;17.15;;
26488;SDS011;14169;43.684;10.484;2023-02-12T11:23:55;17.50;;;15.70;;
26488;SDS011;14169;43.684;10.484;2023-02-12T11:26:26;18.90;;;17.25;;
26488;SDS011;14169;43.684;10.484;2023-02-12T11:28:57;17.60;;;15.90;;
26488;SDS011;14169;43.684;10.484;2023-02-12T11:31:40;17.27;;;15.85;;
26488;SDS011;14169;43.684;10.484;2023-02-12T11:36:32;16.83;;;15.07;;
26488;SDS011;14169;43.684;10.484;2023-02-12T11:39:00;16.70;;;13.27;;
26488;SDS011;14169;43.684;10.484;2023-02-12T11:41:31;13.65;;;12.55;;
26488;SDS011;14169;43.684;10.484;2023-02-12T11:46:58;14.95;;;13.27;;
26488;SDS011;14169;43.684;10.484;2023-02-12T11:49:29;14.85;;;13.35;;
26488;SDS011;14169;43.684;10.484;2023-02-12T11:51:58;12.93;;;11.82;;
26488;SDS011;14169;43.684;10.484;2023-02-12T11:54:27;13.02;;;11.93;;
26488;SDS011;14169;43.684;10.484;2023-02-12T11:56:58;14.68;;;13.40;;
26488;SDS011;14169;43.684;10.484;2023-02-12T11:59:37;13.82;;;12.63;;
26488;SDS011;14169;43.684;10.484;2023-02-12T12:05:17;13.13;;;12.02;;
26488;SDS011;14169;43.684;10.484;2023-02-12T12:07:52;11.68;;;10.73;;
26488;SDS011;14169;43.684;10.484;2023-02-12T12:13:01;13.23;;;11.82;;
26488;SDS011;14169;43.684;10.484;2023-02-12T12:15:39;12.60;;;11.60;;
26488;SDS011;14169;43.684;10.484;2023-02-12T12:18:33;11.88;;;10.77;;
26488;SDS011;14169;43.684;10.484;2023-02-12T12:21:29;12.32;;;11.35;;
26488;SDS011;14169;43.684;10.484;2023-02-12T12:24:05;12.23;;;11.13;;
26488;SDS011;14169;43.684;10.484;2023-02-12T12:26:38;12.85;;;11.50;;
26488;SDS011;14169;43.684;10.484;2023-02-12T12:31:40;11.07;;;10.07;;
26488;SDS011;14169;43.684;10.484;2023-02-12T12:34:12;12.73;;;11.52;;
26488;SDS011;14169;43.684;10.484;2023-02-12T12:39:35;12.40;;;11.13;;
26488;SDS011;14169;43.684;10.484;2023-02-12T13:12:43;6.43;;;5.57;;
26488;SDS011;14169;43.684;10.484;2023-02-12T13:21:10;5.13;;;4.68;;
26488;SDS011;14169;43.684;10.484;2023-02-12T13:26:53;4.03;;;3.63;;
26488;SDS011;14169;43.684;10.484;2023-02-12T13:32:03;4.78;;;3.63;;
26488;SDS011;14169;43.684;10.484;2023-02-12T13:34:31;3.92;;;3.63;;
26488;SDS011;14169;43.684;10.484;2023-02-12T13:36:59;4.60;;;3.50;;
26488;SDS011;14169;43.684;10.484;2023-02-12T13:39:39;4.97;;;4.47;;
26488;SDS011;14169;43.684;10.484;2023-02-12T13:44:58;3.88;;;3.55;;
26488;SDS011;14169;43.684;10.484;2023-02-12T13:50:44;3.50;;;2.97;;
26488;SDS011;14169;43.684;10.484;2023-02-12T14:07:46;4.78;;;4.38;;
26488;SDS011;14169;43.684;10.484;2023-02-12T14:13:26;4.93;;;4.40;;
26488;SDS011;14169;43.684;10.484;2023-02-12T14:15:58;4.03;;;3.63;;
26488;SDS011;14169;43.684;10.484;2023-02-12T14:18:43;3.72;;;3.40;;
26488;SDS011;14169;43.684;10.484;2023-02-12T14:23:38;5.28;;;4.78;;
26488;SDS011;14169;43.684;10.484;2023-02-12T14:26:10;4.88;;;4.47;;
26488;SDS011;14169;43.684;10.484;2023-02-12T14:33:45;4.93;;;3.90;;
26488;SDS011;14169;43.684;10.484;2023-02-12T14:36:13;4.53;;;4.15;;
26488;SDS011;14169;43.684;10.484;2023-02-12T14:54:29;5.85;;;4.88;;
26488;SDS011;14169;43.684;10.484;2023-02-12T14:57:00;5.32;;;4.07;;
26488;SDS011;14169;43.684;10.484;2023-02-12T14:59:48;4.68;;;4.28;;
26488;SDS011;14169;43.684;10.484;2023-02-12T15:02:27;4.60;;;4.20;;
26488;SDS011;14169;43.684;10.484;2023-02-12T15:04:57;5.32;;;4.85;;
26488;SDS011;14169;43.684;10.484;2023-02-12T15:07:30;5.97;;;5.47;;
26488;SDS011;14169;43.684;10.484;2023-02-12T15:10:02;6.13;;;5.50;;
26488;SDS011;14169;43.684;10.484;2023-02-12T15:12:39;6.00;;;5.43;;
26488;SDS011;14169;43.684;10.484;2023-02-12T15:15:12;5.10;;;4.65;;
26488;SDS011;14169;43.684;10.484;2023-02-12T15:17:54;4.53;;;4.10;;
26488;SDS011;14169;43.684;10.484;2023-02-12T15:20:23;4.38;;;3.97;;
26488;SDS011;14169;43.684;10.484;2023-02-12T15:22:57;5.07;;;4.57;;
26488;SDS011;14169;43.684;10.484;2023-02-12T15:25:27;9.90;;;8.88;;
26488;SDS011;14169;43.684;10.484;2023-02-12T15:27:56;4.47;;;4.07;;
26488;SDS011;14169;43.684;10.484;2023-02-12T15:30:28;4.82;;;4.43;;
26488;SDS011;14169;43.684;10.484;2023-02-12T15:32:56;5.10;;;4.60;;
26488;SDS011;14169;43.684;10.484;2023-02-12T15:35:26;5.10;;;4.60;;
26488;SDS011;14169;43.684;10.484;2023-02-12T15:37:54;6.35;;;5.75;;
26488;SDS011;14169;43.684;10.484;2023-02-12T15:40:21;8.80;;;8.10;;
26488;SDS011;14169;43.684;10.484;2023-02-12T15:42:51;6.13;;;5.57;;
26488;SDS011;14169;43.684;10.484;2023-02-12T15:47:56;6.95;;;6.35;;
26488;SDS011;14169;43.684;10.484;2023-02-12T15:50:22;7.40;;;6.70;;
26488;SDS011;14169;43.684;10.484;2023-02-12T15:52:48;5.63;;;5.22;;
26488;SDS011;14169;43.684;10.484;2023-02-12T15:55:19;6.07;;;5.53;;
26488;SDS011;14169;43.684;10.484;2023-02-12T15:57:53;6.82;;;5.43;;
26488;SDS011;14169;43.684;10.484;2023-02-12T16:00:28;8.07;;;6.60;;
26488;SDS011;14169;43.684;10.484;2023-02-12T16:02:56;7.75;;;7.13;;
26488;SDS011;14169;43.684;10.484;2023-02-12T16:05:22;6.63;;;5.93;;
26488;SDS011;14169;43.684;10.484;2023-02-12T16:07:48;8.85;;;8.05;;
26488;SDS011;14169;43.684;10.484;2023-02-12T16:10:15;11.43;;;10.30;;
26488;SDS011;14169;43.684;10.484;2023-02-12T16:12:42;10.45;;;9.55;;
26488;SDS011;14169;43.684;10.484;2023-02-12T16:15:23;10.50;;;9.70;;
26488;SDS011;14169;43.684;10.484;2023-02-12T16:17:54;12.13;;;10.63;;
26488;SDS011;14169;43.684;10.484;2023-02-12T16:20:23;9.93;;;9.02;;
26488;SDS011;14169;43.684;10.484;2023-02-12T16:22:51;10.80;;;9.80;;
26488;SDS011;14169;43.684;10.484;2023-02-12T16:27:59;17.88;;;15.98;;
26488;SDS011;14169;43.684;10.484;2023-02-12T16:30:30;15.10;;;13.60;;
26488;SDS011;14169;43.684;10.484;2023-02-12T16:32:57;20.20;;;16.98;;
26488;SDS011;14169;43.684;10.484;2023-02-12T16:35:24;17.70;;;15.77;;
26488;SDS011;14169;43.684;10.484;2023-02-12T16:37:59;14.02;;;12.75;;
26488;SDS011;14169;43.684;10.484;2023-02-12T16:41:12;14.55;;;13.43;;
26488;SDS011;14169;43.684;10.484;2023-02-12T16:43:32;18.08;;;16.67;;
26488;SDS011;14169;43.684;10.484;2023-02-12T16:46:04;15.25;;;14.07;;
26488;SDS011;14169;43.684;10.484;2023-02-12T16:48:30;14.05;;;12.88;;
26488;SDS011;14169;43.684;10.484;2023-02-12T16:51:01;14.73;;;13.40;;
26488;SDS011;14169;43.684;10.484;2023-02-12T16:55:55;17.77;;;15.57;;
26488;SDS011;14169;43.684;10.484;2023-02-12T16:58:21;20.42;;;17.48;;
26488;SDS011;14169;43.684;10.484;2023-02-12T17:00:47;20.88;;;18.75;;
26488;SDS011;14169;43.684;10.484;2023-02-12T17:03:14;23.52;;;21.15;;
26488;SDS011;14169;43.684;10.484;2023-02-12T17:05:40;27.90;;;24.40;;
26488;SDS011;14169;43.684;10.484;2023-02-12T17:08:18;31.50;;;24.02;;
26488;SDS011;14169;43.684;10.484;2023-02-12T17:10:45;24.02;;;21.70;;
26488;SDS011;14169;43.684;10.484;2023-02-12T17:13:14;25.55;;;21.60;;
26488;SDS011;14169;43.684;10.484;2023-02-12T17:18:23;23.88;;;21.50;;
26488;SDS011;14169;43.684;10.484;2023-02-12T17:20:55;23.88;;;21.65;;
26488;SDS011;14169;43.684;10.484;2023-02-12T17:23:24;29.30;;;25.55;;
26488;SDS011;14169;43.684;10.484;2023-02-12T17:25:49;34.13;;;26.20;;
26488;SDS011;14169;43.684;10.484;2023-02-12T17:28:15;41.55;;;30.48;;
26488;SDS011;14169;43.684;10.484;2023-02-12T17:30:40;45.88;;;32.83;;
26488;SDS011;14169;43.684;10.484;2023-02-12T17:33:06;50.85;;;36.58;;
26488;SDS011;14169;43.684;10.484;2023-02-12T17:35:32;45.20;;;32.22;;
26488;SDS011;14169;43.684;10.484;2023-02-12T17:37:57;38.33;;;29.45;;
26488;SDS011;14169;43.684;10.484;2023-02-12T17:40:23;32.55;;;25.52;;
26488;SDS011;14169;43.684;10.484;2023-02-12T17:42:48;28.15;;;25.08;;
26488;SDS011;14169;43.684;10.484;2023-02-12T17:45:14;30.10;;;26.25;;
26488;SDS011;14169;43.684;10.484;2023-02-12T17:47:39;36.65;;;28.42;;